createdAt,value
2022-12-14T00:02:32.321Z,71.29
2022-12-14T00:05:36.348Z,71.30
2022-12-14T00:08:41.894Z,71.31
2022-12-14T00:11:46.033Z,71.64
2022-12-14T00:14:48.563Z,71.66
2022-12-14T00:17:51.686Z,71.87
2022-12-14T00:20:54.181Z,71.50
2022-12-14T00:23:59.328Z,71.61
2022-12-14T00:27:01.901Z,71.55
2022-12-14T00:30:05.460Z,71.02
2022-12-14T00:33:07.943Z,70.82
2022-12-14T00:36:12.414Z,70.54
2022-12-14T00:39:14.937Z,70.35
2022-12-14T00:42:18.350Z,70.11
2022-12-14T00:45:20.826Z,69.96
2022-12-14T00:48:25.782Z,70.07
2022-12-14T00:51:29.083Z,69.52
2022-12-14T00:54:32.259Z,69.66
2022-12-14T00:57:34.724Z,69.76
2022-12-14T01:00:40.379Z,69.82
2022-12-14T01:03:43.058Z,70.04
2022-12-14T01:06:51.992Z,69.79
2022-12-14T01:09:54.454Z,69.63
2022-12-14T01:12:57.488Z,68.98
2022-12-14T01:16:08.935Z,69.25
2022-12-14T01:19:14.219Z,69.05
2022-12-14T01:22:16.693Z,69.54
2022-12-14T01:25:19.770Z,69.17
2022-12-14T01:28:22.252Z,69.83
2022-12-14T01:31:28.409Z,70.14
2022-12-14T01:34:31.234Z,70.39
2022-12-14T01:37:34.467Z,70.14
2022-12-14T01:40:36.991Z,69.87
2022-12-14T01:43:55.547Z,69.75
2022-12-14T01:47:12.933Z,70.23
2022-12-14T01:50:25.061Z,69.73
2022-12-14T01:53:28.075Z,70.22
2022-12-14T01:56:34.621Z,69.83
2022-12-14T01:59:41.932Z,69.78
2022-12-14T02:02:59.046Z,70.38
2022-12-14T02:06:26.746Z,70.56
2022-12-14T02:09:33.521Z,70.40
2022-12-14T02:12:44.244Z,70.46
2022-12-14T02:15:47.528Z,69.95
2022-12-14T02:18:50.776Z,69.94
2022-12-14T02:22:03.579Z,69.34
2022-12-14T02:25:31.578Z,69.82
2022-12-14T02:28:34.326Z,70.08
2022-12-14T02:31:56.308Z,70.58
2022-12-14T02:35:37.559Z,70.63
2022-12-14T02:39:09.034Z,70.93
2022-12-14T02:42:19.900Z,71.38
2022-12-14T02:46:03.737Z,71.55
2022-12-14T02:49:40.070Z,71.81
2022-12-14T02:53:16.144Z,72.29
2022-12-14T02:56:25.629Z,71.93
2022-12-14T02:59:28.724Z,72.33
2022-12-14T03:02:35.722Z,72.66
2022-12-14T03:05:38.875Z,72.64
2022-12-14T03:08:46.937Z,72.61
2022-12-14T03:11:56.207Z,73.64
2022-12-14T03:15:00.243Z,73.32
2022-12-14T03:18:07.194Z,72.66
2022-12-14T03:21:13.646Z,72.10
2022-12-14T03:24:23.073Z,72.26
2022-12-14T03:27:42.662Z,72.87
2022-12-14T03:31:01.527Z,73.28
2022-12-14T03:34:13.180Z,73.50
2022-12-14T03:37:27.758Z,73.80
2022-12-14T03:40:54.694Z,73.50
2022-12-14T03:44:03.931Z,73.64
2022-12-14T03:47:39.991Z,73.13
2022-12-14T03:50:49.643Z,73.82
2022-12-14T03:54:17.336Z,73.91
2022-12-14T03:57:32.250Z,73.83
2022-12-14T04:00:55.490Z,73.85
2022-12-14T04:04:08.988Z,73.73
2022-12-14T04:07:21.860Z,74.00
2022-12-14T04:10:50.207Z,74.28
2022-12-14T04:14:33.169Z,73.92
2022-12-14T04:17:58.324Z,73.90
2022-12-14T04:21:30.593Z,74.20
2022-12-14T04:25:01.059Z,74.64
2022-12-14T04:28:30.277Z,74.81
2022-12-14T04:31:36.124Z,75.21
2022-12-14T04:34:43.011Z,75.23
2022-12-14T04:37:51.125Z,75.11
2022-12-14T04:40:59.054Z,75.17
2022-12-14T04:44:07.905Z,75.05
2022-12-14T04:47:13.641Z,74.51
2022-12-14T04:50:39.716Z,74.52
2022-12-14T04:53:45.381Z,73.56
2022-12-14T04:57:08.443Z,73.08
2022-12-14T05:00:11.982Z,73.38
2022-12-14T05:03:32.144Z,73.96
2022-12-14T05:06:45.791Z,73.82
2022-12-14T05:09:51.296Z,73.58
2022-12-14T05:13:09.181Z,73.10
2022-12-14T05:16:17.050Z,72.82
2022-12-14T05:19:19.904Z,73.28
2022-12-14T05:22:22.801Z,73.17
2022-12-14T05:25:25.951Z,72.84
2022-12-14T05:28:28.881Z,72.50
2022-12-14T05:31:32.033Z,72.47
2022-12-14T05:34:34.779Z,71.91
2022-12-14T05:37:37.780Z,72.41
2022-12-14T05:40:40.499Z,71.88
2022-12-14T05:43:43.277Z,71.44
2022-12-14T05:46:46.047Z,71.58
2022-12-14T05:49:49.304Z,71.62
2022-12-14T05:52:52.713Z,71.78
2022-12-14T05:55:55.337Z,72.08
2022-12-14T05:58:58.255Z,71.74
2022-12-14T06:02:01.243Z,71.66
2022-12-14T06:05:04.473Z,71.75
2022-12-14T06:08:07.307Z,71.36
2022-12-14T06:11:18.690Z,71.82
2022-12-14T06:14:21.547Z,71.69
2022-12-14T06:17:24.387Z,71.52
2022-12-14T06:20:27.483Z,71.12
2022-12-14T06:23:30.692Z,71.37
2022-12-14T06:26:36.936Z,71.39
2022-12-14T06:29:39.814Z,71.48
2022-12-14T06:32:42.559Z,71.25
2022-12-14T06:35:46.492Z,71.92
2022-12-14T06:38:50.532Z,71.68
2022-12-14T06:41:53.458Z,71.63
2022-12-14T06:44:56.239Z,71.23
2022-12-14T06:47:59.062Z,70.97
2022-12-14T06:51:06.207Z,70.64
2022-12-14T06:54:11.790Z,70.45
2022-12-14T06:57:14.525Z,70.68
2022-12-14T07:00:18.971Z,70.17
2022-12-14T07:03:21.784Z,70.63
2022-12-14T07:06:26.664Z,70.61
2022-12-14T07:09:29.399Z,70.34
2022-12-14T07:12:32.163Z,70.06
2022-12-14T07:15:34.946Z,70.25
2022-12-14T07:18:39.155Z,70.37
2022-12-14T07:21:41.888Z,70.00
2022-12-14T07:24:45.163Z,70.07
2022-12-14T07:27:48.002Z,70.28
2022-12-14T07:30:55.383Z,70.31
2022-12-14T07:33:59.728Z,70.25
2022-12-14T07:37:02.482Z,70.29
2022-12-14T07:40:05.959Z,70.21
2022-12-14T07:43:08.890Z,70.20
2022-12-14T07:46:14.551Z,69.77
2022-12-14T07:49:17.527Z,70.02
2022-12-14T07:52:20.411Z,69.64
2022-12-14T07:55:23.397Z,69.50
2022-12-14T07:58:26.200Z,69.71
2022-12-14T08:01:34.477Z,69.23
2022-12-14T08:04:37.744Z,69.18
2022-12-14T08:07:40.230Z,69.43
2022-12-14T08:10:43.315Z,68.69
2022-12-14T08:13:47.003Z,68.48
2022-12-14T08:17:09.086Z,68.42
2022-12-14T08:20:12.882Z,68.39
2022-12-14T08:23:17.193Z,68.39
2022-12-14T08:26:20.836Z,67.43
2022-12-14T08:29:23.963Z,66.83
2022-12-14T08:32:32.518Z,66.67
2022-12-14T08:35:37.563Z,66.51
2022-12-14T08:38:41.542Z,66.62
2022-12-14T08:41:44.838Z,66.29
2022-12-14T08:44:47.412Z,65.76
2022-12-14T08:47:52.716Z,66.26
2022-12-14T08:50:55.411Z,66.46
2022-12-14T08:53:58.666Z,66.60
2022-12-14T08:57:01.153Z,65.84
2022-12-14T09:00:04.600Z,66.31
2022-12-14T09:03:07.233Z,66.30
2022-12-14T09:06:13.430Z,65.84
2022-12-14T09:09:16.827Z,65.66
2022-12-14T09:12:20.786Z,66.03
2022-12-14T09:15:23.244Z,65.84
2022-12-14T09:18:26.925Z,65.97
2022-12-14T09:21:31.314Z,65.61
2022-12-14T09:24:34.785Z,65.70
2022-12-14T09:27:37.275Z,65.90
2022-12-14T09:30:40.405Z,65.04
2022-12-14T09:33:43.161Z,65.13
2022-12-14T09:36:46.468Z,65.24
2022-12-14T09:39:49.093Z,64.53
2022-12-14T09:43:04.622Z,64.24
2022-12-14T09:46:38.871Z,64.03
2022-12-14T09:49:47.427Z,64.48
2022-12-14T09:52:54.663Z,64.67
2022-12-14T09:55:59.062Z,64.38
2022-12-14T09:59:03.658Z,63.97
2022-12-14T10:02:39.229Z,64.36
2022-12-14T10:06:05.408Z,64.25
2022-12-14T10:09:30.822Z,63.46
2022-12-14T10:12:41.193Z,63.78
2022-12-14T10:16:08.708Z,63.90
2022-12-14T10:19:30.241Z,63.71
2022-12-14T10:22:38.179Z,63.46
2022-12-14T10:25:43.991Z,63.52
2022-12-14T10:29:01.612Z,63.96
2022-12-14T10:32:25.816Z,63.91
2022-12-14T10:35:31.460Z,64.12
2022-12-14T10:38:52.451Z,64.04
2022-12-14T10:42:02.969Z,63.60
2022-12-14T10:48:41.408Z,62.55
2022-12-14T10:51:52.539Z,62.13
2022-12-14T10:55:33.751Z,62.21
2022-12-14T10:58:36.572Z,62.93
2022-12-14T11:01:39.501Z,63.04
2022-12-14T11:04:50.482Z,63.16
2022-12-14T11:07:53.290Z,63.00
2022-12-14T11:11:12.663Z,63.43
2022-12-14T11:14:19.012Z,63.53
2022-12-14T11:17:37.866Z,63.57
2022-12-14T11:20:51.487Z,63.31
2022-12-14T11:23:55.089Z,62.03
2022-12-14T11:27:03.921Z,62.52
2022-12-14T11:30:07.146Z,61.73
2022-12-14T11:33:17.372Z,61.75
2022-12-14T11:36:31.594Z,62.72
2022-12-14T11:39:34.553Z,62.99
2022-12-14T11:42:37.428Z,63.21
2022-12-14T11:45:40.399Z,63.24
2022-12-14T11:48:49.114Z,62.04
2022-12-14T11:51:59.859Z,62.53
2022-12-14T11:55:14.734Z,62.87
2022-12-14T11:58:29.255Z,63.24
2022-12-14T12:01:33.658Z,63.52
2022-12-14T12:04:44.972Z,63.51
2022-12-14T12:07:50.240Z,63.29
2022-12-14T12:11:01.895Z,63.32
2022-12-14T12:14:25.568Z,62.19
2022-12-14T12:17:39.784Z,62.98
2022-12-14T12:20:54.650Z,62.88
2022-12-14T12:24:01.226Z,63.25
2022-12-14T12:27:11.882Z,62.47
2022-12-14T12:30:30.268Z,62.73
2022-12-14T12:33:59.318Z,62.77
2022-12-14T12:40:33.350Z,63.19
2022-12-14T12:43:50.373Z,62.92
2022-12-14T12:50:32.219Z,61.86
2022-12-14T12:53:59.831Z,62.10
2022-12-14T12:57:05.213Z,62.17
2022-12-14T13:00:08.182Z,62.65
2022-12-14T13:03:19.468Z,61.60
2022-12-14T13:06:34.710Z,61.25
2022-12-14T13:09:46.132Z,61.89
2022-12-14T13:12:55.529Z,62.17
2022-12-14T13:16:22.943Z,61.56
2022-12-14T13:19:50.228Z,61.83
2022-12-14T13:22:57.384Z,62.17
2022-12-14T13:26:55.767Z,62.12
2022-12-14T13:30:04.080Z,62.64
2022-12-14T13:33:24.597Z,62.71
2022-12-14T13:36:59.614Z,62.98
2022-12-14T13:40:02.087Z,62.94
2022-12-14T13:43:29.361Z,62.73
2022-12-14T13:46:32.079Z,62.88
2022-12-14T13:49:36.292Z,62.62
2022-12-14T13:52:46.270Z,62.42
2022-12-14T13:55:54.485Z,62.06
2022-12-14T13:58:58.951Z,61.03
2022-12-14T14:02:04.971Z,62.36
2022-12-14T14:05:18.779Z,62.98
2022-12-14T14:08:36.245Z,62.23
2022-12-14T14:11:45.488Z,63.06
2022-12-14T14:15:02.724Z,64.00
2022-12-14T14:18:13.888Z,63.90
2022-12-14T14:21:22.586Z,63.78
2022-12-14T14:24:26.435Z,63.83
2022-12-14T14:27:42.128Z,63.54
2022-12-14T14:30:57.190Z,64.56
2022-12-14T14:34:00.555Z,64.77
2022-12-14T14:37:22.726Z,64.87
2022-12-14T14:40:51.277Z,65.42
2022-12-14T14:43:58.863Z,65.41
2022-12-14T14:47:07.423Z,65.66
2022-12-14T14:50:16.086Z,65.11
2022-12-14T14:53:18.770Z,65.39
2022-12-14T14:56:30.618Z,65.91
2022-12-14T14:59:50.605Z,65.87
2022-12-14T15:02:55.023Z,66.15
2022-12-14T15:05:58.629Z,66.11
2022-12-14T15:09:17.785Z,66.39
2022-12-14T15:12:32.580Z,66.58
2022-12-14T15:15:45.337Z,66.82
2022-12-14T15:18:48.257Z,67.33
2022-12-14T15:21:54.478Z,67.29
2022-12-14T15:25:02.268Z,67.36
2022-12-14T15:28:07.682Z,67.62
2022-12-14T15:31:10.739Z,67.75
2022-12-14T15:34:17.386Z,68.04
2022-12-14T15:37:41.027Z,67.94
2022-12-14T15:40:57.555Z,68.12
2022-12-14T15:44:01.002Z,68.36
2022-12-14T15:47:03.893Z,68.39
2022-12-14T15:50:22.190Z,68.17
2022-12-14T15:53:35.423Z,68.01
2022-12-14T15:56:40.781Z,68.33
2022-12-14T15:59:45.192Z,68.33
2022-12-14T16:02:52.475Z,68.21
2022-12-14T16:05:56.317Z,68.38
2022-12-14T16:09:12.852Z,68.45
2022-12-14T16:12:44.147Z,68.40
2022-12-14T16:15:49.335Z,68.57
2022-12-14T16:18:52.752Z,67.78
2022-12-14T16:22:21.759Z,68.28
2022-12-14T16:25:24.557Z,67.90
2022-12-14T16:28:36.193Z,67.91
2022-12-14T16:31:39.158Z,67.84
2022-12-14T16:34:48.141Z,67.90
2022-12-14T16:37:57.801Z,67.92
2022-12-14T16:41:02.739Z,68.30
2022-12-14T16:44:20.498Z,68.14
2022-12-14T16:47:35.133Z,68.00
2022-12-14T16:50:56.394Z,68.21
2022-12-14T16:54:06.015Z,68.42
2022-12-14T16:57:22.349Z,68.68
2022-12-14T17:00:29.640Z,68.68
2022-12-14T17:03:33.547Z,68.67
2022-12-14T17:06:39.543Z,68.80
2022-12-14T17:09:42.448Z,69.03
2022-12-14T17:12:45.938Z,68.63
2022-12-14T17:15:55.024Z,68.24
2022-12-14T17:18:57.878Z,68.70
2022-12-14T17:22:02.686Z,68.84
2022-12-14T17:25:05.948Z,69.05
2022-12-14T17:28:30.550Z,68.96
2022-12-14T17:31:33.570Z,68.98
2022-12-14T17:34:36.491Z,69.22
2022-12-14T17:37:39.595Z,68.78
2022-12-14T17:40:44.163Z,69.02
2022-12-14T17:43:51.173Z,68.93
2022-12-14T17:46:58.380Z,68.54
2022-12-14T17:50:01.855Z,68.70
2022-12-14T17:53:05.107Z,68.95
2022-12-14T17:56:09.463Z,68.62
2022-12-14T17:59:12.690Z,68.29
2022-12-14T18:02:24.732Z,68.40
2022-12-14T18:05:30.132Z,68.51
2022-12-14T18:08:33.657Z,68.57
2022-12-14T18:11:39.222Z,68.67
2022-12-14T18:14:48.394Z,68.11
2022-12-14T18:17:51.743Z,68.44
2022-12-14T18:20:58.719Z,68.99
2022-12-14T18:24:01.600Z,69.21
2022-12-14T18:27:05.298Z,69.25
2022-12-14T18:30:09.088Z,68.97
2022-12-14T18:33:17.733Z,68.92
2022-12-14T18:36:21.601Z,68.87
2022-12-14T18:39:24.509Z,69.09
2022-12-14T18:42:27.891Z,68.62
2022-12-14T18:45:35.195Z,68.18
2022-12-14T18:48:38.682Z,68.26
2022-12-14T18:51:41.857Z,68.67
2022-12-14T18:54:44.907Z,68.42
2022-12-14T18:57:49.699Z,68.52
2022-12-14T19:00:56.352Z,68.84
2022-12-14T19:03:59.873Z,68.69
2022-12-14T19:07:03.135Z,68.93
2022-12-14T19:10:06.500Z,69.03
2022-12-14T19:13:25.079Z,69.09
2022-12-14T19:16:29.224Z,69.17
2022-12-14T19:19:38.160Z,69.21
2022-12-14T19:22:47.891Z,68.95
2022-12-14T19:25:51.325Z,68.97
2022-12-14T19:28:58.597Z,68.58
2022-12-14T19:32:05.376Z,68.42
2022-12-14T19:35:09.455Z,67.64
2022-12-14T19:38:18.824Z,67.71
2022-12-14T19:41:22.353Z,67.60
2022-12-14T19:44:25.997Z,68.15
2022-12-14T19:47:29.356Z,68.02
2022-12-14T19:50:41.517Z,68.44
2022-12-14T19:53:47.220Z,68.64
2022-12-14T19:56:53.627Z,68.62
2022-12-14T19:59:59.923Z,68.27
2022-12-14T20:03:05.889Z,68.57
2022-12-14T20:06:12.690Z,67.84
2022-12-14T20:09:18.909Z,67.89
2022-12-14T20:12:26.388Z,68.12
2022-12-14T20:15:31.243Z,68.65
2022-12-14T20:18:40.428Z,68.72
2022-12-14T20:21:46.810Z,68.95
2022-12-14T20:24:52.753Z,69.33
2022-12-14T20:27:55.676Z,69.51
2022-12-14T20:31:00.637Z,69.45
2022-12-14T20:34:05.164Z,68.62
2022-12-14T20:37:08.873Z,68.83
2022-12-14T20:40:12.526Z,68.77
2022-12-14T20:43:16.385Z,68.54
2022-12-14T20:46:37.362Z,69.17
2022-12-14T20:49:41.066Z,69.78
2022-12-14T20:52:43.521Z,69.71
2022-12-14T20:55:46.542Z,69.51
2022-12-14T20:58:49.180Z,69.17
2022-12-14T21:01:56.218Z,69.48
2022-12-14T21:04:59.474Z,69.13
2022-12-14T21:08:02.511Z,68.97
2022-12-14T21:11:23.819Z,69.23
2022-12-14T21:14:30.462Z,69.05
2022-12-14T21:17:33.743Z,68.96
2022-12-14T21:20:36.767Z,68.87
2022-12-14T21:23:41.096Z,68.92
2022-12-14T21:26:44.677Z,69.34
2022-12-14T21:29:52.834Z,69.49
2022-12-14T21:32:55.883Z,69.66
2022-12-14T21:35:58.381Z,69.45
2022-12-14T21:39:04.439Z,69.20
2022-12-14T21:42:14.103Z,68.68
2022-12-14T21:45:17.183Z,68.79
2022-12-14T21:48:19.675Z,68.94
2022-12-14T21:51:22.828Z,68.50
2022-12-14T21:54:26.094Z,68.61
2022-12-14T21:57:49.714Z,68.78
2022-12-14T22:00:53.306Z,68.65
2022-12-14T22:03:56.459Z,69.12
2022-12-14T22:07:00.349Z,69.11
2022-12-14T22:10:04.693Z,69.04
2022-12-14T22:13:07.220Z,69.05
2022-12-14T22:16:11.576Z,68.83
2022-12-14T22:19:20.711Z,68.77
2022-12-14T22:22:23.835Z,69.19
2022-12-14T22:25:26.286Z,69.34
2022-12-14T22:28:29.443Z,69.24
2022-12-14T22:31:32.145Z,69.58
2022-12-14T22:34:35.330Z,69.82
2022-12-14T22:37:37.818Z,69.83
2022-12-14T22:40:40.903Z,69.89
2022-12-14T22:43:44.989Z,69.98
2022-12-14T22:46:48.563Z,69.40
2022-12-14T22:49:50.973Z,69.58
2022-12-14T22:52:54.002Z,70.11
2022-12-14T22:56:01.617Z,70.10
2022-12-14T22:59:15.235Z,70.37
2022-12-14T23:02:18.057Z,70.60
2022-12-14T23:05:21.510Z,70.93
2022-12-14T23:08:24.069Z,71.07
2022-12-14T23:11:48.414Z,71.16
2022-12-14T23:15:09.532Z,71.37
2022-12-14T23:18:31.094Z,71.67
2022-12-14T23:21:52.264Z,71.70
2022-12-14T23:25:14.002Z,72.12
2022-12-14T23:28:35.060Z,72.41
2022-12-14T23:31:56.437Z,72.78
2022-12-14T23:35:17.978Z,73.02
2022-12-14T23:38:39.375Z,73.27
2022-12-14T23:42:00.631Z,74.10
2022-12-14T23:45:23.390Z,74.62
2022-12-14T23:48:44.520Z,74.84
2022-12-14T23:52:06.095Z,75.53
2022-12-14T23:55:27.701Z,76.20
2022-12-14T23:58:50.641Z,76.17
